createdAt,value
2023-02-11T00:00:00.350Z,28.93
2023-02-11T00:03:03.253Z,31.17
2023-02-11T00:06:12.039Z,27.70
2023-02-11T00:09:15.155Z,30.55
2023-02-11T00:12:19.755Z,27.50
2023-02-11T00:15:22.498Z,29.87
2023-02-11T00:18:25.696Z,31.37
2023-02-11T00:21:28.880Z,32.45
2023-02-11T00:24:32.614Z,30.40
2023-02-11T00:27:37.160Z,30.25
2023-02-11T00:30:40.267Z,31.10
2023-02-11T00:33:44.532Z,30.10
2023-02-11T00:36:47.411Z,30.25
2023-02-11T00:39:50.733Z,30.95
2023-02-11T00:42:53.630Z,30.48
2023-02-11T00:45:56.474Z,31.93
2023-02-11T00:48:59.755Z,33.17
2023-02-11T00:52:02.612Z,32.85
2023-02-11T00:55:05.669Z,30.55
2023-02-11T00:58:08.802Z,33.55
2023-02-11T01:01:12.780Z,28.87
2023-02-11T01:04:15.674Z,29.47
2023-02-11T01:07:19.063Z,30.67
2023-02-11T01:10:21.967Z,28.58
2023-02-11T01:13:25.962Z,29.20
2023-02-11T01:16:36.273Z,28.57
2023-02-11T01:19:39.631Z,26.43
2023-02-11T01:22:42.728Z,27.48
2023-02-11T01:25:53.189Z,31.13
2023-02-11T01:28:56.215Z,29.95
2023-02-11T01:32:00.634Z,29.43
2023-02-11T01:35:03.885Z,29.97
2023-02-11T01:38:08.640Z,27.40
2023-02-11T01:41:14.792Z,27.63
2023-02-11T01:44:33.344Z,26.75
2023-02-11T01:47:36.245Z,28.00
2023-02-11T01:50:41.803Z,27.37
2023-02-11T01:54:06.282Z,27.67
2023-02-11T01:57:22.293Z,24.25
2023-02-11T02:00:33.975Z,27.20
2023-02-11T02:03:41.926Z,26.97
2023-02-11T02:06:52.669Z,25.40
2023-02-11T02:10:01.951Z,25.38
2023-02-11T02:13:04.864Z,24.23
2023-02-11T02:16:19.670Z,26.48
2023-02-11T02:20:00.120Z,26.13
2023-02-11T02:23:28.870Z,28.83
2023-02-11T02:26:50.252Z,26.60
2023-02-11T02:30:17.838Z,26.85
2023-02-11T02:33:41.341Z,27.88
2023-02-11T02:36:52.001Z,26.43
2023-02-11T02:39:57.379Z,25.13
2023-02-11T02:43:01.775Z,26.30
2023-02-11T02:46:34.977Z,25.20
2023-02-11T02:49:37.874Z,26.65
2023-02-11T02:52:54.152Z,24.57
2023-02-11T02:56:10.014Z,24.87
2023-02-11T02:59:30.845Z,26.30
2023-02-11T03:02:36.543Z,25.23
2023-02-11T03:05:57.392Z,22.83
2023-02-11T03:09:11.488Z,24.63
2023-02-11T03:12:15.858Z,24.07
2023-02-11T03:15:21.597Z,24.63
2023-02-11T03:18:29.747Z,25.95
2023-02-11T03:21:33.952Z,25.45
2023-02-11T03:24:39.775Z,23.27
2023-02-11T03:27:46.609Z,23.83
2023-02-11T03:31:02.928Z,25.88
2023-02-11T03:34:16.563Z,23.20
2023-02-11T03:37:29.586Z,25.75
2023-02-11T03:40:36.716Z,25.07
2023-02-11T03:43:44.440Z,23.93
2023-02-11T03:46:51.042Z,24.50
2023-02-11T03:49:55.570Z,24.42
2023-02-11T03:53:02.203Z,24.00
2023-02-11T03:56:09.510Z,24.40
2023-02-11T03:59:12.189Z,22.93
2023-02-11T04:02:15.061Z,21.33
2023-02-11T04:05:18.025Z,23.58
2023-02-11T04:08:21.383Z,22.25
2023-02-11T04:11:24.118Z,23.83
2023-02-11T04:14:26.894Z,22.30
2023-02-11T04:17:29.738Z,22.70
2023-02-11T04:20:32.539Z,22.38
2023-02-11T04:23:35.370Z,22.45
2023-02-11T04:26:38.094Z,23.47
2023-02-11T04:29:41.033Z,21.30
2023-02-11T04:32:43.897Z,23.40
2023-02-11T04:35:47.106Z,21.45
2023-02-11T04:38:49.887Z,21.80
2023-02-11T04:41:52.828Z,22.47
2023-02-11T04:44:55.599Z,21.20
2023-02-11T04:47:58.392Z,21.17
2023-02-11T04:51:02.243Z,24.20
2023-02-11T04:54:05.116Z,23.88
2023-02-11T04:57:07.895Z,20.73
2023-02-11T05:00:11.237Z,24.83
2023-02-11T05:03:17.431Z,23.83
2023-02-11T05:06:23.724Z,22.88
2023-02-11T05:09:26.440Z,24.23
2023-02-11T05:12:29.178Z,24.57
2023-02-11T05:15:32.090Z,23.33
2023-02-11T05:18:38.476Z,22.92
2023-02-11T05:21:53.143Z,23.05
2023-02-11T05:25:03.196Z,23.63
2023-02-11T05:28:06.421Z,23.27
2023-02-11T05:31:09.456Z,23.03
2023-02-11T05:34:12.190Z,23.15
2023-02-11T05:37:15.192Z,22.55
2023-02-11T05:40:18.235Z,22.02
2023-02-11T05:43:21.548Z,23.30
2023-02-11T05:46:24.320Z,24.17
2023-02-11T05:49:31.105Z,24.27
2023-02-11T05:52:37.430Z,23.00
2023-02-11T05:55:40.401Z,26.20
2023-02-11T05:58:43.333Z,24.10
2023-02-11T06:01:46.310Z,27.07
2023-02-11T06:04:49.046Z,26.17
2023-02-11T06:07:52.381Z,25.15
2023-02-11T06:10:55.156Z,27.92
2023-02-11T06:13:57.984Z,26.77
2023-02-11T06:17:01.022Z,26.43
2023-02-11T06:20:06.835Z,24.98
2023-02-11T06:23:09.630Z,25.92
2023-02-11T06:26:18.577Z,27.60
2023-02-11T06:29:21.341Z,26.73
2023-02-11T06:32:42.682Z,26.77
2023-02-11T06:35:46.002Z,27.65
2023-02-11T06:38:49.834Z,27.42
2023-02-11T06:41:52.563Z,26.45
2023-02-11T06:44:55.382Z,28.53
2023-02-11T06:47:58.109Z,27.90
2023-02-11T06:51:11.521Z,29.15
2023-02-11T06:54:14.966Z,29.83
2023-02-11T06:57:17.762Z,29.90
2023-02-11T07:00:20.623Z,30.93
2023-02-11T07:03:23.635Z,30.33
2023-02-11T07:06:29.095Z,30.45
2023-02-11T07:09:32.048Z,33.15
2023-02-11T07:12:35.026Z,34.40
2023-02-11T07:15:40.873Z,33.67
2023-02-11T07:18:47.897Z,33.33
2023-02-11T07:21:51.507Z,33.55
2023-02-11T07:24:55.139Z,35.63
2023-02-11T07:27:58.058Z,36.47
2023-02-11T07:31:06.976Z,36.57
2023-02-11T07:34:13.968Z,36.03
2023-02-11T07:37:26.030Z,37.75
2023-02-11T07:40:29.251Z,41.65
2023-02-11T07:43:35.966Z,44.65
2023-02-11T07:46:50.168Z,42.83
2023-02-11T07:50:03.302Z,44.97
2023-02-11T07:53:06.480Z,48.22
2023-02-11T07:56:13.889Z,41.40
2023-02-11T07:59:22.665Z,38.95
2023-02-11T08:03:07.020Z,38.30
2023-02-11T08:06:25.096Z,39.80
2023-02-11T08:09:34.567Z,37.83
2023-02-11T08:12:40.726Z,36.72
2023-02-11T08:15:43.502Z,36.30
2023-02-11T08:18:47.058Z,33.73
2023-02-11T08:21:50.024Z,38.03
2023-02-11T08:24:52.837Z,36.45
2023-02-11T08:27:55.595Z,36.42
2023-02-11T08:30:58.449Z,33.15
2023-02-11T08:34:02.586Z,36.47
2023-02-11T08:37:09.513Z,34.87
2023-02-11T08:40:12.354Z,34.38
2023-02-11T08:43:15.500Z,34.50
2023-02-11T08:46:19.754Z,33.42
2023-02-11T08:49:22.988Z,34.90
2023-02-11T08:52:25.734Z,33.10
2023-02-11T08:55:28.465Z,34.10
2023-02-11T08:58:31.218Z,33.92
2023-02-11T09:01:34.401Z,31.13
2023-02-11T09:04:37.335Z,31.97
2023-02-11T09:07:40.252Z,33.60
2023-02-11T09:10:43.307Z,31.77
2023-02-11T09:13:46.658Z,31.88
2023-02-11T09:16:50.012Z,32.13
2023-02-11T09:19:52.928Z,33.17
2023-02-11T09:22:58.133Z,32.00
2023-02-11T09:26:17.383Z,29.58
2023-02-11T09:29:20.847Z,31.13
2023-02-11T09:32:23.791Z,31.05
2023-02-11T09:35:26.771Z,30.07
2023-02-11T09:38:29.792Z,30.53
2023-02-11T09:41:58.701Z,31.35
2023-02-11T09:45:02.757Z,30.63
2023-02-11T09:48:18.671Z,29.73
2023-02-11T09:51:47.510Z,29.03
2023-02-11T09:54:58.440Z,29.97
2023-02-11T09:58:05.315Z,30.38
2023-02-11T10:01:13.899Z,28.20
2023-02-11T10:04:45.416Z,29.13
2023-02-11T10:08:15.899Z,28.27
2023-02-11T10:11:48.661Z,28.10
2023-02-11T10:15:12.017Z,28.67
2023-02-11T10:18:32.938Z,31.08
2023-02-11T10:21:47.549Z,29.85
2023-02-11T10:24:54.811Z,28.53
2023-02-11T10:28:01.596Z,29.53
2023-02-11T10:31:16.611Z,27.98
2023-02-11T10:34:19.529Z,29.55
2023-02-11T10:37:22.353Z,28.45
2023-02-11T10:40:28.650Z,26.70
2023-02-11T10:43:35.072Z,27.50
2023-02-11T10:46:40.807Z,27.67
2023-02-11T10:49:46.082Z,27.17
2023-02-11T10:52:49.215Z,27.05
2023-02-11T10:55:54.904Z,26.00
2023-02-11T10:58:59.920Z,27.30
2023-02-11T11:02:07.047Z,29.05
2023-02-11T11:05:30.020Z,29.25
2023-02-11T11:08:41.509Z,27.02
2023-02-11T11:11:53.279Z,27.00
2023-02-11T11:15:24.088Z,26.57
2023-02-11T11:18:26.783Z,27.70
2023-02-11T11:21:42.228Z,26.52
2023-02-11T11:24:46.853Z,25.98
2023-02-11T11:27:51.464Z,27.87
2023-02-11T11:30:56.819Z,26.53
2023-02-11T11:34:02.530Z,26.10
2023-02-11T11:37:46.965Z,27.77
2023-02-11T11:41:15.537Z,30.45
2023-02-11T11:44:33.851Z,26.83
2023-02-11T11:47:42.066Z,25.07
2023-02-11T11:50:52.658Z,24.17
2023-02-11T11:54:06.649Z,26.15
2023-02-11T11:57:22.412Z,25.33
2023-02-11T12:00:38.201Z,27.13
2023-02-11T12:04:15.122Z,28.53
2023-02-11T12:07:21.994Z,26.15
2023-02-11T12:10:51.366Z,24.52
2023-02-11T12:14:14.211Z,27.48
2023-02-11T12:17:51.011Z,26.57
2023-02-11T12:21:18.464Z,27.97
2023-02-11T12:24:55.150Z,25.85
2023-02-11T12:28:25.966Z,24.55
2023-02-11T12:31:43.802Z,26.48
2023-02-11T12:35:04.858Z,24.87
2023-02-11T12:38:26.932Z,25.27
2023-02-11T12:42:13.500Z,25.48
2023-02-11T12:45:29.851Z,25.15
2023-02-11T12:48:57.388Z,25.83
2023-02-11T12:52:09.888Z,24.80
2023-02-11T12:55:24.037Z,21.93
2023-02-11T12:58:44.175Z,24.67
2023-02-11T13:01:50.724Z,24.10
2023-02-11T13:05:16.858Z,24.15
2023-02-11T13:08:33.851Z,23.83
2023-02-11T13:11:52.706Z,25.33
2023-02-11T13:15:00.307Z,22.65
2023-02-11T13:18:19.189Z,23.70
2023-02-11T13:22:01.637Z,26.88
2023-02-11T13:25:41.583Z,23.63
2023-02-11T13:28:50.627Z,25.53
2023-02-11T13:32:15.882Z,23.88
2023-02-11T13:35:29.840Z,23.52
2023-02-11T13:38:33.833Z,23.33
2023-02-11T13:41:41.085Z,22.87
2023-02-11T13:44:44.738Z,23.13
2023-02-11T13:47:52.584Z,23.50
2023-02-11T13:51:00.069Z,21.27
2023-02-11T13:54:04.917Z,22.88
2023-02-11T13:57:19.616Z,22.50
2023-02-11T14:00:34.935Z,23.83
2023-02-11T14:03:58.646Z,22.00
2023-02-11T14:07:51.272Z,21.15
2023-02-11T14:10:56.235Z,21.35
2023-02-11T14:14:18.129Z,24.03
2023-02-11T14:17:31.142Z,22.53
2023-02-11T14:20:39.181Z,21.67
2023-02-11T14:23:43.091Z,22.10
2023-02-11T14:26:59.727Z,21.63
2023-02-11T14:30:15.428Z,22.27
2023-02-11T14:33:52.744Z,19.80
2023-02-11T14:37:12.638Z,22.15
2023-02-11T14:40:33.421Z,23.00
2023-02-11T14:43:47.464Z,21.13
2023-02-11T14:46:55.252Z,22.57
2023-02-11T14:50:23.438Z,22.27
2023-02-11T14:53:30.507Z,21.35
2023-02-11T14:56:34.811Z,20.88
2023-02-11T14:59:38.689Z,22.33
2023-02-11T15:02:45.030Z,19.20
2023-02-11T15:05:59.509Z,20.50
2023-02-11T15:09:06.268Z,20.80
2023-02-11T15:12:31.844Z,20.95
2023-02-11T15:15:37.042Z,21.58
2023-02-11T15:18:43.858Z,19.47
2023-02-11T15:21:48.052Z,20.77
2023-02-11T15:25:17.612Z,20.70
2023-02-11T15:28:33.882Z,21.45
2023-02-11T15:31:38.028Z,21.58
2023-02-11T15:34:42.613Z,19.73
2023-02-11T15:37:47.379Z,19.63
2023-02-11T15:41:00.584Z,19.80
2023-02-11T15:44:05.188Z,19.67
2023-02-11T15:47:14.685Z,20.50
2023-02-11T15:50:25.209Z,20.23
2023-02-11T15:53:40.816Z,20.00
2023-02-11T15:56:48.597Z,21.77
2023-02-11T15:59:54.814Z,20.42
2023-02-11T16:03:00.877Z,20.48
2023-02-11T16:06:23.603Z,20.30
2023-02-11T16:09:36.882Z,21.83
2023-02-11T16:12:40.796Z,19.17
2023-02-11T16:15:55.319Z,23.10
2023-02-11T16:19:05.310Z,24.48
2023-02-11T16:22:16.546Z,25.37
2023-02-11T16:25:24.803Z,25.97
2023-02-11T16:28:30.750Z,26.98
2023-02-11T16:31:38.730Z,25.55
2023-02-11T16:34:47.278Z,25.88
2023-02-11T16:37:52.452Z,25.93
2023-02-11T16:40:56.956Z,27.80
2023-02-11T16:44:01.168Z,26.02
2023-02-11T16:47:08.761Z,25.67
2023-02-11T16:50:22.762Z,24.35
2023-02-11T16:53:27.121Z,25.87
2023-02-11T16:56:32.114Z,27.20
2023-02-11T16:59:43.374Z,28.05
2023-02-11T17:02:47.686Z,26.70
2023-02-11T17:05:55.849Z,24.48
2023-02-11T17:09:03.034Z,25.63
2023-02-11T17:12:07.542Z,26.73
2023-02-11T17:15:11.783Z,26.40
2023-02-11T17:18:16.227Z,26.85
2023-02-11T17:21:20.741Z,24.25
2023-02-11T17:24:29.099Z,27.57
2023-02-11T17:27:34.028Z,27.20
2023-02-11T17:30:41.495Z,24.88
2023-02-11T17:33:45.349Z,24.67
2023-02-11T17:36:56.311Z,24.60
2023-02-11T17:40:00.785Z,25.73
2023-02-11T17:43:05.496Z,26.33
2023-02-11T17:46:10.796Z,24.67
2023-02-11T17:49:18.084Z,26.48
2023-02-11T17:52:27.680Z,24.92
2023-02-11T17:55:35.148Z,25.87
2023-02-11T17:58:41.215Z,25.00
2023-02-11T18:01:46.108Z,25.60
2023-02-11T18:04:50.485Z,27.05
2023-02-11T18:07:57.918Z,26.13
2023-02-11T18:11:09.685Z,24.43
2023-02-11T18:14:13.745Z,26.60
2023-02-11T18:17:18.116Z,27.63
2023-02-11T18:20:22.793Z,26.73
2023-02-11T18:23:28.219Z,26.88
2023-02-11T18:26:32.686Z,26.83
2023-02-11T18:29:42.294Z,26.30
2023-02-11T18:32:46.993Z,24.42
2023-02-11T18:35:51.720Z,25.15
2023-02-11T18:38:58.765Z,26.00
2023-02-11T18:42:04.224Z,25.00
2023-02-11T18:45:12.437Z,25.90
2023-02-11T18:48:18.867Z,23.80
2023-02-11T18:51:24.916Z,25.02
2023-02-11T18:54:29.305Z,24.90
2023-02-11T18:57:44.640Z,23.23
2023-02-11T19:00:50.631Z,23.93
2023-02-11T19:03:58.760Z,26.40
2023-02-11T19:07:04.934Z,24.58
2023-02-11T19:10:09.810Z,24.13
2023-02-11T19:13:14.964Z,23.20
2023-02-11T19:16:21.428Z,24.90
2023-02-11T19:19:28.816Z,24.88
2023-02-11T19:22:33.510Z,26.25
2023-02-11T19:25:48.104Z,25.35
2023-02-11T19:28:55.309Z,28.80
2023-02-11T19:32:00.007Z,26.33
2023-02-11T19:35:11.095Z,26.83
2023-02-11T19:38:19.778Z,24.20
2023-02-11T19:41:25.374Z,25.48
2023-02-11T19:44:31.369Z,24.40
2023-02-11T19:47:36.551Z,27.13
2023-02-11T19:50:42.578Z,26.98
2023-02-11T19:53:47.323Z,28.20
2023-02-11T19:56:56.296Z,29.67
2023-02-11T20:00:01.786Z,24.97
2023-02-11T20:03:16.100Z,26.57
2023-02-11T20:06:25.556Z,25.92
2023-02-11T20:09:32.493Z,25.75
2023-02-11T20:12:38.808Z,26.70
2023-02-11T20:15:42.286Z,28.13
2023-02-11T20:18:50.979Z,25.57
2023-02-11T20:21:56.164Z,28.27
2023-02-11T20:25:02.331Z,28.52
2023-02-11T20:28:09.043Z,29.45
2023-02-11T20:31:14.434Z,30.40
2023-02-11T20:34:19.621Z,29.67
2023-02-11T20:37:27.963Z,28.30
2023-02-11T20:40:33.679Z,29.35
2023-02-11T20:43:38.128Z,27.98
2023-02-11T20:46:46.771Z,30.80
2023-02-11T20:49:51.601Z,27.33
2023-02-11T20:52:58.143Z,28.30
2023-02-11T20:56:07.469Z,29.27
2023-02-11T20:59:12.973Z,29.98
2023-02-11T21:02:18.504Z,28.17
2023-02-11T21:05:23.011Z,28.47
2023-02-11T21:08:27.276Z,27.92
2023-02-11T21:11:31.983Z,28.75
2023-02-11T21:14:40.445Z,27.65
2023-02-11T21:17:44.857Z,29.87
2023-02-11T21:20:49.939Z,30.17
2023-02-11T21:23:56.632Z,30.40
2023-02-11T21:27:01.459Z,32.78
2023-02-11T21:30:07.442Z,29.65
2023-02-11T21:33:14.641Z,30.13
2023-02-11T21:36:18.887Z,30.33
2023-02-11T21:39:25.498Z,32.42
2023-02-11T21:42:29.693Z,31.60
2023-02-11T21:45:33.615Z,31.27
2023-02-11T21:48:37.824Z,31.53
2023-02-11T21:51:44.426Z,32.47
2023-02-11T21:54:50.586Z,31.85
2023-02-11T21:57:54.680Z,30.98
2023-02-11T22:00:57.794Z,27.42
2023-02-11T22:04:01.929Z,31.70
2023-02-11T22:07:05.266Z,30.60
2023-02-11T22:10:09.523Z,30.77
2023-02-11T22:13:13.457Z,30.33
2023-02-11T22:16:16.852Z,29.90
2023-02-11T22:19:20.258Z,30.93
2023-02-11T22:22:23.970Z,33.23
2023-02-11T22:25:26.702Z,30.83
2023-02-11T22:28:30.429Z,30.30
2023-02-11T22:31:34.920Z,29.83
2023-02-11T22:34:38.162Z,31.30
2023-02-11T22:37:41.110Z,30.27
2023-02-11T22:40:44.055Z,28.50
2023-02-11T22:43:48.570Z,30.25
2023-02-11T22:46:52.524Z,29.52
2023-02-11T22:49:55.335Z,29.57
2023-02-11T22:52:58.094Z,30.10
2023-02-11T22:56:09.332Z,30.38
2023-02-11T22:59:14.749Z,31.00
2023-02-11T23:02:17.927Z,29.63
2023-02-11T23:05:20.788Z,29.93
2023-02-11T23:08:23.657Z,27.47
2023-02-11T23:11:30.497Z,29.33
2023-02-11T23:14:33.424Z,28.80
2023-02-11T23:17:36.277Z,30.45
2023-02-11T23:20:43.813Z,27.53
2023-02-11T23:23:47.038Z,28.63
2023-02-11T23:26:50.133Z,27.58
2023-02-11T23:29:56.024Z,27.67
2023-02-11T23:32:58.925Z,28.23
2023-02-11T23:36:01.685Z,27.83
2023-02-11T23:39:08.382Z,27.83
2023-02-11T23:42:12.180Z,25.42
2023-02-11T23:45:15.142Z,27.27
2023-02-11T23:48:18.284Z,26.60
2023-02-11T23:51:21.790Z,27.20
2023-02-11T23:54:24.635Z,27.40
2023-02-11T23:57:27.410Z,26.73
